Time;durP1;ratioP1;P1;durP2;ratioP2;P2;SDS_P1;SDS_P2;PMS_P1;PMS_P2;Temp;Humidity;BMP_temperature;BMP_pressure;BME280_temperature;BME280_humidity;BME280_pressure;Samples;Min_cycle;Max_cycle;Signal;HPM_P1;HPM_P2
2020/12/20 00:00:09;;;;;;;3.70;3.30;;;11.00;99.90;;;;;;5115333;27;20200;-80
2020/12/20 00:02:36;;;;;;;3.83;3.42;;;11.00;99.90;;;;;;5116206;27;20207;-80
2020/12/20 00:05:03;;;;;;;5.45;4.25;;;11.00;99.90;;;;;;5116608;27;20636;-80
2020/12/20 00:07:29;;;;;;;3.42;3.13;;;11.00;99.90;;;;;;5133462;27;20240;-80
2020/12/20 00:09:55;;;;;;;5.25;3.67;;;11.00;99.90;;;;;;5117342;27;20193;-80
2020/12/20 00:12:23;;;;;;;3.85;3.50;;;11.00;99.90;;;;;;5125356;27;20580;-80
2020/12/20 00:14:49;;;;;;;3.88;3.58;;;11.00;99.90;;;;;;5116184;27;20208;-80
2020/12/20 00:17:15;;;;;;;3.88;3.47;;;11.00;99.90;;;;;;5116120;27;20584;-80
2020/12/20 00:19:42;;;;;;;3.65;3.35;;;11.00;99.90;;;;;;5123920;27;20193;-80
2020/12/20 00:22:10;;;;;;;3.70;3.40;;;11.00;99.90;;;;;;5112993;27;20218;-79
2020/12/20 00:24:36;;;;;;;3.45;2.78;;;11.00;99.90;;;;;;5123587;27;20197;-80
2020/12/20 00:27:05;;;;;;;4.85;3.50;;;11.00;99.90;;;;;;5128621;27;20184;-80
2020/12/20 00:29:33;;;;;;;3.92;3.63;;;11.00;99.90;;;;;;5114169;28;20200;-80
2020/12/20 00:32:00;;;;;;;2.88;2.50;;;11.00;99.90;;;;;;5117200;27;20193;-80
2020/12/20 00:34:26;;;;;;;3.20;2.80;;;11.00;99.90;;;;;;5124804;27;20204;-78
2020/12/20 00:36:53;;;;;;;2.97;2.75;;;11.00;99.90;;;;;;5122892;27;20212;-72
2020/12/20 00:39:20;;;;;;;3.38;3.08;;;11.00;99.90;;;;;;5113557;28;20702;-74
2020/12/20 00:41:50;;;;;;;4.45;3.50;;;11.00;99.90;;;;;;5113078;27;20193;-73
2020/12/20 00:44:17;;;;;;;3.45;3.15;;;11.00;99.90;;;;;;5112888;28;20197;-76
2020/12/20 00:46:44;;;;;;;3.35;2.90;;;11.00;99.90;;;;;;5120763;27;20189;-77
2020/12/20 00:49:10;;;;;;;3.47;3.17;;;11.00;99.90;;;;;;5112079;28;20200;-77
2020/12/20 00:51:37;;;;;;;2.90;2.60;;;11.00;99.90;;;;;;5113084;28;20647;-77
2020/12/20 00:54:03;;;;;;;4.30;3.90;;;11.00;99.90;;;;;;5115486;27;20195;-77
2020/12/20 00:56:29;;;;;;;3.35;2.97;;;11.00;99.90;;;;;;5123356;27;20226;-77
2020/12/20 00:58:56;;;;;;;3.40;3.10;;;11.00;99.90;;;;;;5114909;27;20201;-77
2020/12/20 01:01:22;;;;;;;5.78;2.53;;;11.00;99.90;;;;;;5113255;27;20558;-77
2020/12/20 01:03:50;;;;;;;3.25;2.97;;;11.00;99.90;;;;;;5112655;28;20192;-77
2020/12/20 01:06:17;;;;;;;3.13;2.83;;;11.00;99.90;;;;;;5112747;28;20199;-75
2020/12/20 01:08:43;;;;;;;3.22;2.80;;;11.00;99.90;;;;;;5112431;28;20192;-75
2020/12/20 01:11:09;;;;;;;3.80;3.50;;;11.00;99.90;;;;;;5119767;27;20535;-76
2020/12/20 01:13:36;;;;;;;3.00;2.75;;;11.00;99.90;;;;;;5119179;27;20196;-75
2020/12/20 01:16:02;;;;;;;3.17;2.85;;;11.00;99.90;;;;;;5112795;27;20196;-76
2020/12/20 01:18:29;;;;;;;5.18;2.90;;;11.00;99.90;;;;;;5120403;27;20198;-76
2020/12/20 01:20:56;;;;;;;4.18;3.78;;;11.00;99.90;;;;;;5115248;27;20211;-75
2020/12/20 01:23:22;;;;;;;2.78;2.47;;;11.00;99.90;;;;;;5112401;28;20209;-75
2020/12/20 01:25:48;;;;;;;3.13;2.80;;;11.00;99.90;;;;;;5119386;27;20274;-75
2020/12/20 01:28:15;;;;;;;3.67;2.75;;;11.00;99.90;;;;;;5130582;27;20200;-76
2020/12/20 01:30:41;;;;;;;3.40;2.40;;;11.00;99.90;;;;;;5115707;27;20201;-75
2020/12/20 01:33:07;;;;;;;3.72;3.13;;;11.00;99.90;;;;;;5112052;28;20636;-75
2020/12/20 01:35:34;;;;;;;3.03;2.72;;;11.00;99.90;;;;;;5120619;27;20196;-75
2020/12/20 01:38:01;;;;;;;3.03;2.58;;;11.00;99.90;;;;;;5126901;27;20212;-75
2020/12/20 01:40:27;;;;;;;2.95;2.58;;;11.00;99.90;;;;;;5112937;27;20223;-75
2020/12/20 01:42:54;;;;;;;3.97;2.90;;;11.00;99.90;;;;;;5116069;27;20193;-75
2020/12/20 01:45:21;;;;;;;3.38;2.55;;;11.00;99.90;;;;;;5126816;27;20192;-75
2020/12/20 01:47:47;;;;;;;3.05;2.72;;;11.00;99.90;;;;;;5121714;27;20207;-76
2020/12/20 01:50:14;;;;;;;3.33;3.03;;;11.00;99.90;;;;;;5127684;27;20202;-76
2020/12/20 01:52:40;;;;;;;4.95;3.00;;;11.00;99.90;;;;;;5112115;28;20540;-75
2020/12/20 01:55:08;;;;;;;3.40;2.72;;;11.00;99.90;;;;;;5116983;27;20202;-75
2020/12/20 01:57:35;;;;;;;3.17;2.92;;;11.00;99.90;;;;;;5119016;27;20224;-75
2020/12/20 02:00:01;;;;;;;4.00;2.50;;;11.00;99.90;;;;;;5112165;28;20193;-76
2020/12/20 02:02:27;;;;;;;3.55;2.50;;;11.00;99.90;;;;;;5129667;27;20206;-76
2020/12/20 02:04:54;;;;;;;3.60;2.58;;;11.00;99.90;;;;;;5122906;27;20250;-75
2020/12/20 02:07:20;;;;;;;3.38;2.92;;;11.00;99.90;;;;;;5132539;27;20206;-76
2020/12/20 02:09:46;;;;;;;2.85;2.47;;;11.00;99.90;;;;;;5114695;27;20196;-76
2020/12/20 02:12:13;;;;;;;4.60;2.70;;;11.00;99.90;;;;;;5114441;28;20200;-76
2020/12/20 02:14:40;;;;;;;4.32;2.25;;;11.00;99.90;;;;;;5120257;27;20198;-76
2020/12/20 02:17:07;;;;;;;2.90;2.70;;;11.00;99.90;;;;;;5113105;28;20234;-76
2020/12/20 02:19:33;;;;;;;2.45;2.25;;;11.00;99.90;;;;;;5131312;28;20212;-76
2020/12/20 02:22:01;;;;;;;2.63;2.42;;;11.00;99.90;;;;;;5111502;28;20207;-76
2020/12/20 02:24:27;;;;;;;2.33;2.13;;;11.00;99.90;;;;;;5110911;28;20201;-77
2020/12/20 02:26:54;;;;;;;2.78;2.30;;;11.00;99.90;;;;;;5120150;28;20204;-77
2020/12/20 02:29:20;;;;;;;2.25;2.00;;;11.00;99.90;;;;;;5132516;28;20249;-76
2020/12/20 02:31:46;;;;;;;2.47;1.95;;;11.00;99.90;;;;;;5123935;27;20199;-76
2020/12/20 02:34:13;;;;;;;2.20;2.00;;;11.00;99.90;;;;;;5129186;28;20650;-76
2020/12/20 02:36:39;;;;;;;2.75;2.40;;;11.00;99.90;;;;;;5116072;27;20224;-76
2020/12/20 02:39:07;;;;;;;2.85;2.40;;;11.00;99.90;;;;;;5112134;28;20200;-76
2020/12/20 02:41:34;;;;;;;2.75;2.22;;;11.00;99.90;;;;;;5122409;27;20192;-76
2020/12/20 02:44:01;;;;;;;4.45;2.33;;;11.00;99.90;;;;;;5124894;27;20248;-76
2020/12/20 02:46:27;;;;;;;2.58;2.10;;;11.00;99.90;;;;;;5120119;27;20193;-76
2020/12/20 02:48:54;;;;;;;2.55;2.35;;;11.00;99.90;;;;;;5117136;27;20280;-76
2020/12/20 02:51:20;;;;;;;3.03;2.50;;;11.00;99.90;;;;;;5123715;27;20251;-76
2020/12/20 02:53:46;;;;;;;2.53;2.30;;;11.00;99.90;;;;;;5136392;27;20813;-76
2020/12/20 02:56:14;;;;;;;3.00;2.67;;;11.00;99.90;;;;;;5119828;27;20245;-76
2020/12/20 02:58:40;;;;;;;2.33;2.13;;;11.00;99.90;;;;;;5135449;27;20222;-76
2020/12/20 03:01:07;;;;;;;2.35;2.15;;;11.00;99.90;;;;;;5126472;27;20208;-75
2020/12/20 03:03:33;;;;;;;3.33;2.42;;;11.00;99.90;;;;;;5116918;27;20202;-75
2020/12/20 03:06:00;;;;;;;2.60;2.40;;;11.00;99.90;;;;;;5115135;27;20197;-75
2020/12/20 03:08:26;;;;;;;2.10;1.90;;;11.00;99.90;;;;;;5115771;28;20552;-75
2020/12/20 03:10:52;;;;;;;2.20;1.80;;;11.00;99.90;;;;;;5116129;27;20192;-75
2020/12/20 03:13:19;;;;;;;3.00;2.25;;;11.00;99.90;;;;;;5118474;27;20196;-75
2020/12/20 03:15:46;;;;;;;2.50;2.30;;;11.00;99.90;;;;;;5133357;27;20199;-75
2020/12/20 03:18:12;;;;;;;2.30;2.10;;;11.00;99.90;;;;;;5127455;27;20216;-75
2020/12/20 03:20:38;;;;;;;2.70;1.85;;;11.00;99.90;;;;;;5117929;27;20189;-73
2020/12/20 03:23:05;;;;;;;1.70;1.50;;;11.00;99.90;;;;;;5132019;27;20200;-74
2020/12/20 03:25:31;;;;;;;2.70;2.50;;;11.00;99.90;;;;;;5132816;27;20633;-74
2020/12/20 03:27:58;;;;;;;1.92;1.75;;;11.00;99.90;;;;;;5119717;27;20258;-74
2020/12/20 03:30:26;;;;;;;2.67;2.10;;;11.00;99.90;;;;;;5125933;27;20193;-74
2020/12/20 03:32:53;;;;;;;4.22;1.83;;;11.00;99.90;;;;;;5115235;28;20266;-74
2020/12/20 03:35:19;;;;;;;3.35;2.10;;;11.00;99.90;;;;;;5114262;28;20199;-74
2020/12/20 03:37:49;;;;;;;2.72;2.10;;;11.00;99.90;;;;;;5134947;27;20212;-74
2020/12/20 03:40:16;;;;;;;2.50;2.30;;;11.00;99.90;;;;;;5123711;27;20301;-74
2020/12/20 03:42:43;;;;;;;2.10;1.90;;;11.00;99.90;;;;;;5130031;27;20220;-74
2020/12/20 03:45:09;;;;;;;2.58;2.30;;;10.90;99.90;;;;;;5118870;27;20211;-74
2020/12/20 03:47:36;;;;;;;2.30;2.10;;;11.00;99.90;;;;;;5122064;27;20199;-74
2020/12/20 03:50:04;;;;;;;1.70;1.60;;;11.00;99.90;;;;;;5133924;27;20211;-74
2020/12/20 03:52:30;;;;;;;2.00;1.80;;;11.00;99.90;;;;;;5114372;27;20200;-76
2020/12/20 03:54:56;;;;;;;2.60;2.40;;;11.00;99.90;;;;;;5114879;28;20207;-74
2020/12/20 03:57:22;;;;;;;2.05;1.85;;;11.00;99.90;;;;;;5124552;27;20683;-75
2020/12/20 03:59:49;;;;;;;2.30;2.10;;;10.90;99.90;;;;;;5129746;27;20215;-75
2020/12/20 04:02:15;;;;;;;2.10;1.90;;;11.00;99.90;;;;;;5124152;27;20205;-75
2020/12/20 04:04:42;;;;;;;2.40;2.17;;;11.00;99.90;;;;;;5115806;27;20211;-75
2020/12/20 04:07:08;;;;;;;1.95;1.75;;;11.00;99.90;;;;;;5128383;27;20258;-74
2020/12/20 04:09:35;;;;;;;2.40;2.20;;;10.90;99.90;;;;;;5128231;27;20203;-76
2020/12/20 04:12:02;;;;;;;1.60;1.50;;;10.90;99.90;;;;;;5114863;27;20203;-74
2020/12/20 04:14:29;;;;;;;1.52;1.42;;;10.90;99.90;;;;;;5123196;27;20638;-75
2020/12/20 04:16:55;;;;;;;1.98;1.70;;;10.90;99.90;;;;;;5132968;27;20227;-76
2020/12/20 04:19:21;;;;;;;2.13;1.95;;;10.90;99.90;;;;;;5113656;28;20257;-76
2020/12/20 04:21:48;;;;;;;2.30;1.95;;;10.90;99.90;;;;;;5124812;27;20256;-76
2020/12/20 04:24:15;;;;;;;4.65;1.90;;;10.90;99.90;;;;;;5133118;27;20196;-78
2020/12/20 04:26:42;;;;;;;2.55;2.35;;;10.90;99.90;;;;;;5130654;27;20279;-77
2020/12/20 04:29:08;;;;;;;2.70;2.50;;;10.80;99.90;;;;;;5113753;28;20207;-75
2020/12/20 04:31:35;;;;;;;2.60;2.17;;;10.80;99.90;;;;;;5122035;27;20200;-77
2020/12/20 04:34:01;;;;;;;1.90;1.80;;;10.90;99.90;;;;;;5135069;27;20739;-79
2020/12/20 04:36:28;;;;;;;2.45;2.05;;;10.90;99.90;;;;;;5118623;27;20205;-77
2020/12/20 04:38:55;;;;;;;2.25;2.05;;;10.80;99.90;;;;;;5113259;27;20891;-77
2020/12/20 04:41:22;;;;;;;3.80;2.20;;;10.80;99.90;;;;;;5132001;27;20198;-77
2020/12/20 04:43:50;;;;;;;2.45;2.25;;;10.80;99.90;;;;;;5123606;27;20542;-78
2020/12/20 04:46:18;;;;;;;2.17;1.65;;;10.80;99.90;;;;;;5129173;27;20252;-76
2020/12/20 04:48:44;;;;;;;2.38;2.00;;;10.90;99.90;;;;;;5116753;27;20560;-78
2020/12/20 04:51:12;;;;;;;2.63;2.03;;;10.90;99.90;;;;;;5123469;27;20200;-76
2020/12/20 04:53:38;;;;;;;2.25;1.90;;;10.90;99.90;;;;;;5115337;27;20620;-77
2020/12/20 04:56:07;;;;;;;2.47;2.28;;;10.90;99.90;;;;;;5112331;27;20273;-78
2020/12/20 04:58:34;;;;;;;1.92;1.73;;;10.90;99.90;;;;;;5113047;28;20213;-77
2020/12/20 05:01:01;;;;;;;2.40;2.20;;;10.90;99.90;;;;;;5112782;28;20646;-78
2020/12/20 05:03:28;;;;;;;1.83;1.73;;;10.90;99.90;;;;;;5112347;27;20195;-78
2020/12/20 05:05:56;;;;;;;2.85;2.10;;;10.90;99.90;;;;;;5114612;27;20223;-77
2020/12/20 05:08:23;;;;;;;2.20;2.03;;;10.80;99.90;;;;;;5124343;27;20188;-76
2020/12/20 05:10:53;;;;;;;1.85;1.52;;;10.90;99.90;;;;;;5120295;27;20208;-78
2020/12/20 05:13:21;;;;;;;1.85;1.70;;;10.80;99.90;;;;;;5119555;27;20727;-76
2020/12/20 05:15:48;;;;;;;2.22;1.80;;;10.90;99.90;;;;;;5121906;27;20252;-76
2020/12/20 05:18:15;;;;;;;2.05;1.65;;;10.90;99.90;;;;;;5130917;27;20216;-76
2020/12/20 05:20:43;;;;;;;1.80;1.70;;;10.90;99.90;;;;;;5114242;27;20578;-76
2020/12/20 05:23:11;;;;;;;3.00;2.03;;;10.90;99.90;;;;;;5112103;28;20563;-76
2020/12/20 05:25:39;;;;;;;2.67;2.17;;;10.90;99.90;;;;;;5115379;27;20192;-76
2020/12/20 05:28:11;;;;;;;1.63;1.52;;;10.90;99.90;;;;;;5121282;27;20208;-77
2020/12/20 05:30:38;;;;;;;2.28;1.58;;;10.80;99.90;;;;;;5115181;27;20524;-77
2020/12/20 05:33:05;;;;;;;2.08;1.95;;;10.80;99.90;;;;;;5121355;27;20209;-77
2020/12/20 05:35:32;;;;;;;2.67;2.47;;;10.90;99.90;;;;;;5119859;27;20204;-76
2020/12/20 05:37:59;;;;;;;1.55;1.42;;;10.90;99.90;;;;;;5118065;27;20588;-77
2020/12/20 05:40:27;;;;;;;3.03;1.67;;;10.90;99.90;;;;;;5114892;27;20563;-77
2020/12/20 05:42:57;;;;;;;2.10;1.90;;;10.90;99.90;;;;;;5123045;27;20543;-77
2020/12/20 05:45:25;;;;;;;2.10;1.90;;;10.90;99.90;;;;;;5118931;27;20197;-77
2020/12/20 05:47:52;;;;;;;1.77;1.67;;;10.90;99.90;;;;;;5132961;27;20189;-77
2020/12/20 05:50:19;;;;;;;2.17;1.80;;;10.90;99.90;;;;;;5121944;27;20211;-76
2020/12/20 05:53:00;;;;;;;2.20;2.00;;;10.90;99.90;;;;;;5118316;27;20192;-77
2020/12/20 05:55:35;;;;;;;2.42;2.17;;;10.90;99.90;;;;;;5112524;27;20620;-76
2020/12/20 05:58:11;;;;;;;1.80;1.60;;;10.90;99.90;;;;;;5116884;27;20207;-76
2020/12/20 06:00:38;;;;;;;1.80;1.70;;;10.90;99.90;;;;;;5119265;27;20214;-76
2020/12/20 06:03:06;;;;;;;2.92;1.92;;;10.90;99.90;;;;;;5115845;27;20200;-77
2020/12/20 06:05:37;;;;;;;2.13;1.90;;;10.80;99.90;;;;;;5118227;27;20644;-79
2020/12/20 06:08:06;;;;;;;1.65;1.55;;;10.90;99.90;;;;;;5118598;27;20200;-75
2020/12/20 06:10:35;;;;;;;4.32;1.70;;;10.90;99.90;;;;;;5114511;28;20192;-75
2020/12/20 06:13:04;;;;;;;2.40;2.20;;;10.90;99.90;;;;;;5115073;28;20653;-78
2020/12/20 06:15:33;;;;;;;1.83;1.73;;;10.90;99.90;;;;;;5117320;28;20215;-77
2020/12/20 06:18:04;;;;;;;2.20;2.00;;;10.90;99.90;;;;;;5125017;28;20270;-76
2020/12/20 06:20:32;;;;;;;1.58;1.48;;;10.90;99.90;;;;;;5116713;28;20762;-76
2020/12/20 06:22:58;;;;;;;2.00;1.80;;;10.90;99.90;;;;;;5112131;28;20203;-76
2020/12/20 06:25:27;;;;;;;2.22;2.03;;;10.90;99.90;;;;;;5113797;28;20600;-76
2020/12/20 06:27:56;;;;;;;1.75;1.60;;;10.80;99.90;;;;;;5120077;28;20192;-76
2020/12/20 06:30:22;;;;;;;2.72;2.53;;;10.90;99.90;;;;;;5119916;28;20196;-76
2020/12/20 06:32:54;;;;;;;1.90;1.67;;;10.90;99.90;;;;;;5132853;27;20206;-76
2020/12/20 06:35:24;;;;;;;2.30;1.70;;;10.90;99.90;;;;;;5120156;27;20197;-76
2020/12/20 06:37:52;;;;;;;2.35;2.00;;;10.90;99.90;;;;;;5111980;28;20224;-76
2020/12/20 06:40:39;;;;;;;2.75;2.20;;;10.90;99.90;;;;;;5118094;28;20232;-78
2020/12/20 06:43:06;;;;;;;2.38;1.80;;;10.90;99.90;;;;;;5111886;28;20212;-77
2020/12/20 06:45:40;;;;;;;2.33;2.13;;;10.90;99.90;;;;;;5113881;28;20529;-77
2020/12/20 06:48:09;;;;;;;2.28;2.03;;;10.90;99.90;;;;;;5124465;28;20281;-77
2020/12/20 06:50:43;;;;;;;2.67;1.80;;;10.90;99.90;;;;;;5113455;28;20208;-77
2020/12/20 06:53:12;;;;;;;2.50;2.30;;;10.90;99.90;;;;;;5117335;28;20193;-77
2020/12/20 06:55:39;;;;;;;2.70;2.25;;;10.90;99.90;;;;;;5119063;28;20197;-77
2020/12/20 06:58:16;;;;;;;1.88;1.60;;;10.80;99.90;;;;;;5122271;27;20212;-76
2020/12/20 07:00:51;;;;;;;2.60;2.35;;;10.80;99.90;;;;;;5109698;28;20220;-76
2020/12/20 07:03:44;;;;;;;2.72;1.92;;;10.80;99.90;;;;;;5115050;28;20184;-75
2020/12/20 07:06:18;;;;;;;3.10;1.80;;;10.80;99.90;;;;;;5110457;28;20588;-76
2020/12/20 07:09:04;;;;;;;1.77;1.65;;;10.80;99.90;;;;;;5117800;28;20216;-76
2020/12/20 07:11:30;;;;;;;2.47;2.28;;;10.80;99.90;;;;;;5116458;28;20253;-76
2020/12/20 07:13:57;;;;;;;2.33;1.95;;;10.90;99.90;;;;;;5116048;28;20192;-76
2020/12/20 07:16:25;;;;;;;3.33;2.55;;;10.90;99.90;;;;;;5120372;27;20196;-76
2020/12/20 07:18:56;;;;;;;2.15;1.95;;;10.80;99.90;;;;;;5129715;27;20207;-76
2020/12/20 07:21:58;;;;;;;2.10;2.00;;;10.90;99.90;;;;;;5113389;27;20193;-78
2020/12/20 07:24:28;;;;;;;2.42;2.22;;;10.80;99.90;;;;;;5115514;28;20213;-79
2020/12/20 07:26:57;;;;;;;1.85;1.73;;;10.80;99.90;;;;;;5115213;27;20223;-79
2020/12/20 07:29:24;;;;;;;2.63;2.42;;;10.80;99.90;;;;;;5120923;27;20224;-76
2020/12/20 07:31:52;;;;;;;2.28;2.08;;;10.80;99.90;;;;;;5128110;27;20188;-76
2020/12/20 07:34:19;;;;;;;3.72;2.75;;;10.80;99.90;;;;;;5113944;27;20200;-76
2020/12/20 07:36:45;;;;;;;3.05;2.00;;;10.80;99.90;;;;;;5115773;27;20188;-76
2020/12/20 07:39:12;;;;;;;2.15;1.95;;;10.80;99.90;;;;;;5121152;27;20228;-76
2020/12/20 07:41:39;;;;;;;1.73;1.63;;;10.80;99.90;;;;;;5119772;27;20189;-77
2020/12/20 07:44:07;;;;;;;2.55;2.33;;;10.80;99.90;;;;;;5121069;27;20200;-77
2020/12/20 07:46:34;;;;;;;1.60;1.45;;;10.80;99.90;;;;;;5117891;27;20201;-78
2020/12/20 07:49:05;;;;;;;2.38;2.15;;;10.80;99.90;;;;;;5131891;27;20526;-79
2020/12/20 07:51:31;;;;;;;2.20;2.00;;;10.80;99.90;;;;;;5119684;27;20196;-77
2020/12/20 07:53:59;;;;;;;3.08;2.25;;;10.80;99.90;;;;;;5123277;27;20628;-77
2020/12/20 07:56:27;;;;;;;2.17;1.95;;;10.80;99.90;;;;;;5125493;27;20725;-80
2020/12/20 07:58:56;;;;;;;2.63;2.42;;;10.80;99.90;;;;;;5118293;27;20216;-79
2020/12/20 08:01:23;;;;;;;2.92;2.20;;;10.80;99.90;;;;;;5116538;27;20520;-79
2020/12/20 08:04:00;;;;;;;2.38;2.03;;;10.80;99.90;;;;;;5123228;27;20206;-79
2020/12/20 08:06:26;;;;;;;2.20;2.00;;;10.80;99.90;;;;;;5122759;27;20191;-81
2020/12/20 08:08:52;;;;;;;2.45;2.20;;;10.80;99.90;;;;;;5113962;27;20281;-79
2020/12/20 08:11:22;;;;;;;2.13;1.92;;;10.80;99.90;;;;;;5122311;27;20514;-82
2020/12/20 08:13:54;;;;;;;1.60;1.50;;;10.80;99.90;;;;;;5124069;27;20209;-80
2020/12/20 08:16:22;;;;;;;2.45;2.20;;;10.80;99.90;;;;;;5120449;27;20305;-80
2020/12/20 08:18:58;;;;;;;2.65;2.25;;;10.80;99.90;;;;;;5124562;27;20679;-81
2020/12/20 08:21:36;;;;;;;2.25;2.05;;;10.70;99.90;;;;;;5120880;27;20192;-81
2020/12/20 08:24:02;;;;;;;2.05;1.88;;;10.80;99.90;;;;;;5121294;27;20196;-82
2020/12/20 08:26:30;;;;;;;2.70;2.08;;;10.80;99.90;;;;;;5115646;27;20197;-83
2020/12/20 08:28:57;;;;;;;4.00;2.30;;;10.80;99.90;;;;;;5119224;27;20199;-81
2020/12/20 08:31:27;;;;;;;2.25;2.00;;;10.80;99.90;;;;;;5111959;27;20227;-79
2020/12/20 08:33:54;;;;;;;3.05;2.53;;;10.80;99.90;;;;;;5115306;27;20201;-79
2020/12/20 08:36:22;;;;;;;1.92;1.73;;;10.80;99.90;;;;;;5120069;27;20196;-84
2020/12/20 08:38:48;;;;;;;2.25;1.90;;;10.80;99.90;;;;;;5120613;27;20239;-84
2020/12/20 08:41:24;;;;;;;1.80;1.70;;;10.70;99.90;;;;;;5119897;27;20228;-84
2020/12/20 08:44:03;;;;;;;2.65;1.90;;;10.70;99.90;;;;;;5121290;27;20504;-85
2020/12/20 08:46:31;;;;;;;2.25;2.05;;;10.80;99.90;;;;;;5121891;27;20203;-85
2020/12/20 08:49:20;;;;;;;2.38;1.98;;;10.70;99.90;;;;;;5125507;27;20237;-84
2020/12/20 08:51:47;;;;;;;2.33;2.05;;;10.70;99.90;;;;;;5115237;27;20533;-84
2020/12/20 08:54:24;;;;;;;2.10;1.90;;;10.80;99.90;;;;;;5115608;27;20417;-85
2020/12/20 08:56:58;;;;;;;1.85;1.75;;;10.80;99.90;;;;;;5121028;27;20192;-84
2020/12/20 08:59:37;;;;;;;2.72;2.03;;;10.80;99.90;;;;;;5110879;27;20195;-85
2020/12/20 09:02:05;;;;;;;1.80;1.67;;;10.80;99.90;;;;;;5120372;27;20188;-82
2020/12/20 09:04:32;;;;;;;2.60;2.40;;;10.80;99.90;;;;;;5120218;27;20252;-83
2020/12/20 09:07:06;;;;;;;3.00;2.65;;;10.80;99.90;;;;;;5111643;27;20193;-82
2020/12/20 09:09:32;;;;;;;2.25;2.05;;;10.80;99.90;;;;;;5118533;27;20214;-83
2020/12/20 09:12:13;;;;;;;1.92;1.75;;;10.80;99.90;;;;;;5118897;27;20666;-83
2020/12/20 09:14:41;;;;;;;2.55;2.13;;;10.80;99.90;;;;;;5120205;27;20201;-82
2020/12/20 09:17:07;;;;;;;2.35;1.92;;;10.70;99.90;;;;;;5118579;27;20261;-82
2020/12/20 09:19:34;;;;;;;2.00;1.80;;;10.70;99.90;;;;;;5127363;27;20276;-83
2020/12/20 09:22:00;;;;;;;2.45;2.08;;;10.80;99.90;;;;;;5125742;27;20632;-82
2020/12/20 09:24:29;;;;;;;1.73;1.50;;;10.70;99.90;;;;;;5116370;27;21675;-82
2020/12/20 09:26:58;;;;;;;2.55;2.35;;;10.80;99.90;;;;;;5119549;27;20193;-84
2020/12/20 09:29:24;;;;;;;2.10;1.90;;;10.90;99.90;;;;;;5115798;27;20192;-85
2020/12/20 09:31:53;;;;;;;2.85;2.65;;;10.90;99.90;;;;;;5112758;27;20195;-83
2020/12/20 09:34:20;;;;;;;2.47;2.28;;;11.00;99.90;;;;;;5116949;27;20241;-83
2020/12/20 09:36:46;;;;;;;2.30;2.10;;;11.00;99.90;;;;;;5113229;27;20204;-75
2020/12/20 09:39:13;;;;;;;6.07;2.55;;;11.00;99.90;;;;;;5115200;27;20223;-84
2020/12/20 09:41:40;;;;;;;2.85;2.58;;;11.10;99.90;;;;;;5117899;27;20201;-84
2020/12/20 09:44:06;;;;;;;3.40;3.10;;;11.00;99.90;;;;;;5124761;27;20197;-83
2020/12/20 09:46:35;;;;;;;3.30;2.80;;;11.10;99.90;;;;;;5120147;27;20206;-83
2020/12/20 09:49:04;;;;;;;2.30;2.13;;;11.00;99.90;;;;;;5118125;27;20196;-85
2020/12/20 09:51:32;;;;;;;3.63;2.63;;;11.00;99.90;;;;;;5114907;27;20202;-84
2020/12/20 09:53:59;;;;;;;2.78;2.55;;;11.00;99.90;;;;;;5118084;27;20585;-83
2020/12/20 09:56:25;;;;;;;3.13;2.83;;;10.90;99.90;;;;;;5128627;27;20204;-83
2020/12/20 09:58:51;;;;;;;3.65;3.10;;;11.00;99.90;;;;;;5131591;27;20204;-83
2020/12/20 10:01:19;;;;;;;3.08;2.85;;;10.90;99.90;;;;;;5128038;27;20212;-82
2020/12/20 10:03:45;;;;;;;3.40;3.00;;;10.90;99.90;;;;;;5112586;28;20558;-83
2020/12/20 10:06:14;;;;;;;3.58;2.92;;;11.00;99.90;;;;;;5116505;27;20211;-83
2020/12/20 10:08:41;;;;;;;5.65;3.30;;;11.00;99.90;;;;;;5114884;28;20193;-83
2020/12/20 10:11:08;;;;;;;3.47;3.08;;;11.00;99.90;;;;;;5114423;27;20203;-83
2020/12/20 10:13:34;;;;;;;3.22;2.92;;;11.00;99.90;;;;;;5123992;28;20230;-83
2020/12/20 10:16:00;;;;;;;3.20;2.83;;;11.00;99.90;;;;;;5124954;27;20192;-83
2020/12/20 10:18:26;;;;;;;2.85;2.65;;;11.00;99.90;;;;;;5121375;28;20212;-83
2020/12/20 10:20:53;;;;;;;4.05;3.20;;;11.00;99.90;;;;;;5133684;27;20192;-83
2020/12/20 10:23:20;;;;;;;3.15;2.90;;;11.00;99.90;;;;;;5120365;27;20197;-83
2020/12/20 10:25:46;;;;;;;4.30;3.00;;;11.00;99.90;;;;;;5119373;27;20196;-83
2020/12/20 10:28:12;;;;;;;2.90;2.58;;;11.00;99.90;;;;;;5122036;27;20201;-83
2020/12/20 10:30:39;;;;;;;3.58;3.28;;;11.00;99.90;;;;;;5118924;27;20207;-84
2020/12/20 10:33:05;;;;;;;5.40;4.65;;;11.00;99.90;;;;;;5118033;28;20204;-83
2020/12/20 10:35:31;;;;;;;3.72;3.17;;;11.10;99.90;;;;;;5118183;28;20208;-85
2020/12/20 10:37:58;;;;;;;4.25;3.50;;;11.00;99.90;;;;;;5115336;28;20223;-83
2020/12/20 10:40:26;;;;;;;5.50;3.33;;;11.00;99.90;;;;;;5123297;27;20292;-83
2020/12/20 10:42:53;;;;;;;3.67;3.03;;;11.00;99.90;;;;;;5120713;28;20357;-83
2020/12/20 10:45:19;;;;;;;4.97;3.15;;;11.00;99.90;;;;;;5120967;28;20207;-82
2020/12/20 10:47:46;;;;;;;2.55;2.33;;;11.00;99.90;;;;;;5120802;27;20193;-83
2020/12/20 10:50:12;;;;;;;3.60;2.92;;;11.00;99.90;;;;;;5116730;28;20540;-84
2020/12/20 10:52:39;;;;;;;2.97;2.67;;;11.00;99.90;;;;;;5123663;28;20826;-82
2020/12/20 10:55:05;;;;;;;3.78;2.80;;;11.00;99.90;;;;;;5122451;27;20200;-82
2020/12/20 10:57:34;;;;;;;4.13;3.60;;;11.00;99.90;;;;;;5119398;28;20234;-82
2020/12/20 11:00:01;;;;;;;3.88;2.97;;;11.00;99.90;;;;;;5117632;27;20192;-82
2020/12/20 11:02:27;;;;;;;2.97;2.70;;;11.00;99.90;;;;;;5122797;27;20192;-82
2020/12/20 11:04:53;;;;;;;5.85;3.75;;;11.00;99.90;;;;;;5127829;27;20252;-82
2020/12/20 11:07:20;;;;;;;3.50;3.20;;;11.00;99.90;;;;;;5122601;27;20199;-83
2020/12/20 11:09:46;;;;;;;4.03;3.30;;;11.10;99.90;;;;;;5132355;27;20196;-82
2020/12/20 11:12:12;;;;;;;5.15;3.08;;;11.10;99.90;;;;;;5133466;27;20196;-83
2020/12/20 11:14:40;;;;;;;5.10;3.83;;;11.20;99.90;;;;;;5124359;27;20244;-83
2020/12/20 11:17:06;;;;;;;2.78;2.53;;;11.20;99.90;;;;;;5123381;27;20199;-83
2020/12/20 11:19:32;;;;;;;3.50;3.20;;;11.20;99.90;;;;;;5128420;27;20198;-81
2020/12/20 11:21:59;;;;;;;3.17;2.63;;;11.20;99.90;;;;;;5116941;27;20201;-79
2020/12/20 11:24:26;;;;;;;5.00;3.75;;;11.20;99.90;;;;;;5120834;27;20212;-76
2020/12/20 11:26:54;;;;;;;3.20;2.83;;;11.20;99.90;;;;;;5121074;27;20192;-81
2020/12/20 11:29:21;;;;;;;5.53;3.47;;;11.20;99.90;;;;;;5120683;27;20841;-78
2020/12/20 11:31:48;;;;;;;3.40;3.10;;;11.20;99.90;;;;;;5114329;27;20239;-80
2020/12/20 11:34:15;;;;;;;5.80;3.22;;;11.20;99.90;;;;;;5117451;27;20248;-82
2020/12/20 11:36:42;;;;;;;3.13;2.60;;;11.20;99.90;;;;;;5122100;27;20965;-78
2020/12/20 11:39:10;;;;;;;3.83;2.67;;;11.20;99.90;;;;;;5126981;27;20220;-81
2020/12/20 11:41:37;;;;;;;3.88;3.00;;;11.20;99.90;;;;;;5121140;27;20573;-80
2020/12/20 11:44:05;;;;;;;4.22;3.42;;;11.20;99.90;;;;;;5114396;27;20195;-79
2020/12/20 11:46:31;;;;;;;3.28;2.92;;;11.20;99.90;;;;;;5121034;27;20196;-79
2020/12/20 11:48:58;;;;;;;4.00;3.00;;;11.20;99.90;;;;;;5118986;27;20628;-80
2020/12/20 11:51:26;;;;;;;3.35;2.30;;;11.20;99.90;;;;;;5129355;27;20273;-79
2020/12/20 11:53:53;;;;;;;3.38;2.28;;;11.20;99.90;;;;;;5120632;27;20189;-79
2020/12/20 11:56:20;;;;;;;3.75;2.50;;;11.30;99.90;;;;;;5127651;27;20196;-79
2020/12/20 11:58:46;;;;;;;9.43;3.05;;;11.20;99.90;;;;;;5120826;27;20265;-82
2020/12/20 12:01:12;;;;;;;6.22;2.92;;;11.30;99.90;;;;;;5123704;27;20204;-83
2020/12/20 12:03:39;;;;;;;5.70;2.75;;;11.20;99.90;;;;;;5121062;27;20193;-81
2020/12/20 12:06:06;;;;;;;3.42;2.50;;;11.20;99.90;;;;;;5121780;27;20196;-80
2020/12/20 12:08:33;;;;;;;5.32;3.28;;;11.20;99.90;;;;;;5120070;27;20185;-80
2020/12/20 12:10:59;;;;;;;3.65;2.40;;;11.20;99.90;;;;;;5118916;27;20200;-80
2020/12/20 12:13:26;;;;;;;3.42;2.40;;;11.20;99.90;;;;;;5115365;27;20204;-80
2020/12/20 12:15:52;;;;;;;2.83;2.25;;;11.30;99.90;;;;;;5127554;27;20624;-79
2020/12/20 12:18:18;;;;;;;6.25;2.63;;;11.20;99.90;;;;;;5127867;27;20306;-81
2020/12/20 12:20:44;;;;;;;3.90;2.70;;;11.30;99.90;;;;;;5122050;27;20200;-84
2020/12/20 12:23:12;;;;;;;2.60;2.33;;;11.30;99.90;;;;;;5115459;27;20196;-78
2020/12/20 12:25:38;;;;;;;3.67;2.10;;;11.30;99.90;;;;;;5114883;27;20253;-79
2020/12/20 12:28:04;;;;;;;2.70;2.20;;;11.30;99.90;;;;;;5118657;27;20283;-80
2020/12/20 12:30:31;;;;;;;2.95;2.65;;;11.30;99.90;;;;;;5120703;27;20631;-81
2020/12/20 12:32:57;;;;;;;7.28;2.67;;;11.30;99.90;;;;;;5115413;27;20193;-85
2020/12/20 12:35:24;;;;;;;4.22;3.10;;;11.30;99.90;;;;;;5121833;27;20201;-80
2020/12/20 12:37:51;;;;;;;4.00;2.60;;;11.30;99.90;;;;;;5122112;27;20268;-77
2020/12/20 12:40:18;;;;;;;4.75;2.25;;;11.30;99.90;;;;;;5117489;27;20277;-79
2020/12/20 12:42:45;;;;;;;2.80;2.40;;;11.40;99.90;;;;;;5117026;27;20257;-79
2020/12/20 12:45:14;;;;;;;3.78;2.67;;;11.40;99.90;;;;;;5119787;27;20196;-79
2020/12/20 12:47:40;;;;;;;3.28;2.97;;;11.40;99.90;;;;;;5123583;27;20555;-85
2020/12/20 12:50:07;;;;;;;2.25;2.05;;;11.40;99.90;;;;;;5120827;27;20197;-81